PWSweather.com
Personal Weather Stations
Station Observations
ABQWX
Albuquerque, NM 87110

Albuquerque, NM 87110

Lat: 35.1305, Lon: -106.58571

Elevation: 5210

Station Type: LaCrosse

http://www.albuquerqueweather.info/

High Low Average
Temperature 92.3°F33.5°F 61.8°F16.6°F 75.6°F24.2°F
Dew Point 50.9°F10.5°F 43.2°F6.2°F 47.2°F8.4°F
Winds 8.5 mph SSW13.7 mph SSW 0.1 mph 0.2 mph 2.5 mph 4.0 mph
Wind Gusts 11.2 mph18.0 mph 0.2 mph0.3 mph 4.6 mph7.4 mph
Humidity 56% 24% 38%
Pressure 30.03 in1016.90 in 29.85 in1010.80 in -
Precipitation 0.00 in0.00 in - -
Hour Temp Dew Point Humidity Winds Wind Gusts Pressure Precip Precip Rate Daily Precip Total
12:00 AM 69.0°F20.6°C 47.4°F8.6°C 46% 1.4 mph SSE2.3 kmh SSE 2.9 mph4.7 kmh 30.03 in1016.9 mb 0.00 in0.0 mm 0.00 in0.0 mm 0.00 in0.0 mm
01:00 AM 68.1°F20.1°C 46.6°F8.1°C 46% 1.1 mph E1.8 kmh E 2.0 mph3.2 kmh 30.02 in1016.6 mb 0.00 in0.0 mm 0.00 in0.0 mm 0.00 in0.0 mm
02:00 AM 67.8°F19.9°C 46.8°F8.2°C 47% 1.0 mph E1.6 kmh E 2.0 mph3.2 kmh 30.00 in1015.9 mb 0.00 in0.0 mm 0.00 in0.0 mm 0.00 in0.0 mm
03:00 AM 67.1°F19.5°C 46.2°F7.9°C 47% 0.4 mph SSW0.6 kmh SSW 0.7 mph1.1 kmh 29.99 in1015.6 mb 0.00 in0.0 mm 0.00 in0.0 mm 0.00 in0.0 mm
04:00 AM 65.4°F18.6°C 46.3°F7.9°C 50% 0.2 mph SW0.3 kmh SW 0.7 mph1.1 kmh 29.98 in1015.2 mb 0.00 in0.0 mm 0.00 in0.0 mm 0.00 in0.0 mm
05:00 AM 64.4°F18.0°C 45.8°F7.7°C 51% 0.7 mph SW1.1 kmh SW 1.6 mph2.6 kmh 29.98 in1015.2 mb 0.00 in0.0 mm 0.00 in0.0 mm 0.00 in0.0 mm
06:00 AM 63.1°F17.3°C 45.7°F7.6°C 53% 0.1 mph NNW0.2 kmh NNW 0.2 mph0.3 kmh 29.99 in1015.6 mb 0.00 in0.0 mm 0.00 in0.0 mm 0.00 in0.0 mm
07:00 AM 61.8°F16.6°C 46.0°F7.8°C 56% 1.8 mph WNW2.9 kmh WNW 1.6 mph2.6 kmh 30.00 in1015.9 mb 0.00 in0.0 mm 0.00 in0.0 mm 0.00 in0.0 mm
08:00 AM 64.0°F17.8°C 47.5°F8.6°C 55% 0.2 mph SW0.3 kmh SW 0.4 mph0.6 kmh 30.01 in1016.3 mb 0.00 in0.0 mm 0.00 in0.0 mm 0.00 in0.0 mm
09:00 AM 67.6°F19.8°C 48.3°F9.1°C 50% 0.7 mph SSE1.1 kmh SSE 1.8 mph2.9 kmh 30.01 in1016.3 mb 0.00 in0.0 mm 0.00 in0.0 mm 0.00 in0.0 mm
10:00 AM 73.7°F23.2°C 50.4°F10.2°C 44% 1.6 mph SSE2.6 kmh SSE 3.4 mph5.5 kmh 30.01 in1016.3 mb 0.00 in0.0 mm 0.00 in0.0 mm 0.00 in0.0 mm
11:00 AM 80.7°F27.1°C 50.5°F10.3°C 35% 2.5 mph SSW4.0 kmh SSW 5.4 mph8.7 kmh 30.01 in1016.3 mb 0.00 in0.0 mm 0.00 in0.0 mm 0.00 in0.0 mm
12:00 PM 84.0°F28.9°C 50.1°F10.1°C 31% 4.0 mph N6.4 kmh N 6.0 mph9.7 kmh 29.98 in1015.2 mb 0.00 in0.0 mm 0.00 in0.0 mm 0.00 in0.0 mm
01:00 PM 86.9°F30.5°C 50.8°F10.4°C 29% 3.2 mph W5.1 kmh W 6.0 mph9.7 kmh 29.95 in1014.2 mb 0.00 in0.0 mm 0.00 in0.0 mm 0.00 in0.0 mm
02:00 PM 88.1°F31.2°C 50.9°F10.5°C 28% 3.2 mph NW5.1 kmh NW 6.5 mph10.5 kmh 29.93 in1013.5 mb 0.00 in0.0 mm 0.00 in0.0 mm 0.00 in0.0 mm
03:00 PM 90.6°F32.6°C 50.0°F10.0°C 25% 4.1 mph WSW6.6 kmh WSW 7.6 mph12.2 kmh 29.90 in1012.5 mb 0.00 in0.0 mm 0.00 in0.0 mm 0.00 in0.0 mm
04:00 PM 92.3°F33.5°C 50.3°F10.2°C 24% 3.1 mph S5.0 kmh S 7.6 mph12.2 kmh 29.88 in1011.9 mb 0.00 in0.0 mm 0.00 in0.0 mm 0.00 in0.0 mm
05:00 PM 86.3°F30.2°C 46.3°F7.9°C 25% 2.5 mph E4.0 kmh E 4.9 mph7.9 kmh 29.86 in1011.2 mb 0.00 in0.0 mm 0.00 in0.0 mm 0.00 in0.0 mm
06:00 PM 84.9°F29.4°C 44.1°F6.7°C 24% 3.4 mph NW5.5 kmh NW 5.4 mph8.7 kmh 29.85 in1010.8 mb 0.00 in0.0 mm 0.00 in0.0 mm 0.00 in0.0 mm
07:00 PM 82.5°F28.1°C 43.2°F6.2°C 25% 3.4 mph SW5.5 kmh SW 9.6 mph15.4 kmh 29.85 in1010.8 mb 0.00 in0.0 mm 0.00 in0.0 mm 0.00 in0.0 mm
08:00 PM 79.8°F26.6°C 45.6°F7.6°C 30% 5.2 mph SSW8.4 kmh SSW 7.8 mph12.6 kmh 29.87 in1011.5 mb 0.00 in0.0 mm 0.00 in0.0 mm 0.00 in0.0 mm
09:00 PM 77.5°F25.3°C 45.3°F7.4°C 32% 8.5 mph SSW13.7 kmh SSW 11.2 mph18.0 kmh 29.90 in1012.5 mb 0.00 in0.0 mm 0.00 in0.0 mm 0.00 in0.0 mm
10:00 PM 75.5°F24.2°C 44.4°F6.9°C 33% 4.7 mph SSE7.6 kmh SSE 8.7 mph14.0 kmh 29.92 in1013.2 mb 0.00 in0.0 mm 0.00 in0.0 mm 0.00 in0.0 mm
11:00 PM 74.4°F23.6°C 44.2°F6.8°C 34% 2.5 mph SSE4.0 kmh SSE 6.0 mph9.7 kmh 29.93 in1013.5 mb 0.00 in0.0 mm 0.00 in0.0 mm 0.00 in0.0 mm